Flight Number: EUR3026 Duration: 11:30
Departure: Tel Aviv Ben Gurion (LLBG) at 08:00 Distance: 4920 Nm
Arrival: John F Kennedy Int'l (KJFK) at 19:30 Equipment: B777

Weather Information
Ben-Gurion International Airport, Israel (LLBG) 32-00N 034-54E 49M Jan 21, 2019 - 06:50 AM EST / 2019.01.21 1150 UTC
Wind: Variable at 2 MPH (2 KT):0
Visibility: greater than 7 mile(s):0 Temperature: 68 F (20 C) Dew Point: 37 F (3 C) Relative Humidity: 32% Pressure (altimeter): 30.00 in. Hg (1016 hPa)
ob: LLBG 211150Z VRB02KT CAVOK 20/03 Q1016 NOSIG RMK SCT140 cycle: 12
Sunrise: 04:42 Sunset: 15:01 (UTC)

KENNEDY INTERNATIONAL AIRPORT , NY, United States (KJFK) 40-38N 073-46W 9M Jan 21, 2019 - 06:51 AM EST / 2019.01.21 1151 UTC
Wind: from the WNW (290 degrees) at 26 MPH (23 KT) gusting to 37 MPH (32 KT):0
Visibility: 10 mile(s):0
Sky conditions: partly cloudy Temperature: 6.1 F (-14.4 C)
Windchill: -16 F (-27 C):2 Dew Point: -8.0 F (-22.2 C) Relative Humidity: 51% Pressure (altimeter): 29.96 in. Hg (1014 hPa) Pressure tendency: 0.08 inches (2.7 hPa) higher than three hours ago
ob: KJFK 211151Z 29023G32KT 10SM SCT037 M14/M22 A2996 RMK AO2 PK WND 29035/1114 SLP144 VIRGA SE-S 70031 T11441222 11100 21144 53027 cycle: 12
Sunrise: 12:16 Sunset: 21:56 (UTC)

TAF:2019/01/21 12:31 TAF KJFK 211129Z 2112/2218 30025G38KT P6SM BKN040 FM211600 30028G41KT P6SM BKN100 FM212300 31025G37KT P6SM FEW250 FM220200 31022G32KT P6SM SKC FM220800 31017G24KT P6SM SKC FM221200 31014KT P6SM SKC

Previous Pireps for this route
Date Aircraft Flight time Fuel used Landing rate On time
2016-02-03A34010.29201758-289Charter
(pireps marked green are flown by you)

Route map